sensor_id;sensor_type;location;lat;lon;timestamp;P1;durP1;ratioP1;P2;durP2;ratioP2
11010;SDS011;5558;42.702;23.178;2023-05-07T00:02:02;10.50;;;8.20;;
11010;SDS011;5558;42.702;23.178;2023-05-07T00:04:30;10.23;;;7.63;;
11010;SDS011;5558;42.702;23.178;2023-05-07T00:07:01;9.50;;;7.80;;
11010;SDS011;5558;42.702;23.178;2023-05-07T00:09:28;8.57;;;7.47;;
11010;SDS011;5558;42.702;23.178;2023-05-07T00:11:55;8.20;;;7.40;;
11010;SDS011;5558;42.702;23.178;2023-05-07T00:14:22;8.80;;;7.90;;
11010;SDS011;5558;42.702;23.178;2023-05-07T00:16:48;8.40;;;7.60;;
11010;SDS011;5558;42.702;23.178;2023-05-07T00:19:15;8.47;;;7.67;;
11010;SDS011;5558;42.702;23.178;2023-05-07T00:21:43;8.50;;;7.60;;
11010;SDS011;5558;42.702;23.178;2023-05-07T00:24:10;7.73;;;7.03;;
11010;SDS011;5558;42.702;23.178;2023-05-07T00:26:36;9.47;;;7.87;;
11010;SDS011;5558;42.702;23.178;2023-05-07T00:29:03;8.77;;;7.67;;
11010;SDS011;5558;42.702;23.178;2023-05-07T00:31:30;9.93;;;7.97;;
11010;SDS011;5558;42.702;23.178;2023-05-07T00:33:57;9.97;;;8.30;;
11010;SDS011;5558;42.702;23.178;2023-05-07T00:36:23;12.23;;;9.47;;
11010;SDS011;5558;42.702;23.178;2023-05-07T00:38:53;16.50;;;13.03;;
11010;SDS011;5558;42.702;23.178;2023-05-07T00:41:20;15.27;;;11.10;;
11010;SDS011;5558;42.702;23.178;2023-05-07T00:43:47;10.87;;;9.70;;
11010;SDS011;5558;42.702;23.178;2023-05-07T00:46:16;12.87;;;9.90;;
11010;SDS011;5558;42.702;23.178;2023-05-07T00:48:43;10.70;;;9.60;;
11010;SDS011;5558;42.702;23.178;2023-05-07T00:51:11;9.67;;;8.77;;
11010;SDS011;5558;42.702;23.178;2023-05-07T00:53:38;9.50;;;8.57;;
11010;SDS011;5558;42.702;23.178;2023-05-07T00:56:07;9.43;;;8.40;;
11010;SDS011;5558;42.702;23.178;2023-05-07T00:58:34;9.20;;;8.17;;
11010;SDS011;5558;42.702;23.178;2023-05-07T01:01:01;9.77;;;8.53;;
11010;SDS011;5558;42.702;23.178;2023-05-07T01:03:28;10.43;;;9.43;;
11010;SDS011;5558;42.702;23.178;2023-05-07T01:05:55;10.17;;;9.17;;
11010;SDS011;5558;42.702;23.178;2023-05-07T01:08:24;10.97;;;9.83;;
11010;SDS011;5558;42.702;23.178;2023-05-07T01:10:53;10.70;;;9.60;;
11010;SDS011;5558;42.702;23.178;2023-05-07T01:13:22;9.30;;;8.40;;
11010;SDS011;5558;42.702;23.178;2023-05-07T01:15:50;9.07;;;8.07;;
11010;SDS011;5558;42.702;23.178;2023-05-07T01:18:17;9.37;;;8.57;;
11010;SDS011;5558;42.702;23.178;2023-05-07T01:20:44;9.93;;;8.43;;
11010;SDS011;5558;42.702;23.178;2023-05-07T01:23:12;8.70;;;8.00;;
11010;SDS011;5558;42.702;23.178;2023-05-07T01:25:39;9.40;;;8.43;;
11010;SDS011;5558;42.702;23.178;2023-05-07T01:28:06;8.80;;;8.00;;
11010;SDS011;5558;42.702;23.178;2023-05-07T01:30:32;8.40;;;7.73;;
11010;SDS011;5558;42.702;23.178;2023-05-07T01:33:02;9.33;;;8.13;;
11010;SDS011;5558;42.702;23.178;2023-05-07T01:35:34;9.87;;;8.87;;
11010;SDS011;5558;42.702;23.178;2023-05-07T01:38:05;9.43;;;8.53;;
11010;SDS011;5558;42.702;23.178;2023-05-07T01:40:34;9.60;;;8.70;;
11010;SDS011;5558;42.702;23.178;2023-05-07T01:43:01;8.53;;;7.77;;
11010;SDS011;5558;42.702;23.178;2023-05-07T01:45:29;10.37;;;9.37;;
11010;SDS011;5558;42.702;23.178;2023-05-07T01:47:56;9.70;;;8.80;;
11010;SDS011;5558;42.702;23.178;2023-05-07T01:50:24;9.03;;;8.13;;
11010;SDS011;5558;42.702;23.178;2023-05-07T01:52:51;7.90;;;7.20;;
11010;SDS011;5558;42.702;23.178;2023-05-07T01:55:18;8.37;;;7.10;;
11010;SDS011;5558;42.702;23.178;2023-05-07T01:57:47;7.00;;;6.40;;
11010;SDS011;5558;42.702;23.178;2023-05-07T02:00:13;8.60;;;7.80;;
11010;SDS011;5558;42.702;23.178;2023-05-07T02:02:40;8.27;;;7.53;;
11010;SDS011;5558;42.702;23.178;2023-05-07T02:05:08;9.10;;;8.20;;
11010;SDS011;5558;42.702;23.178;2023-05-07T02:07:34;7.40;;;6.80;;
11010;SDS011;5558;42.702;23.178;2023-05-07T02:10:01;9.20;;;8.33;;
11010;SDS011;5558;42.702;23.178;2023-05-07T02:12:28;10.07;;;9.07;;
11010;SDS011;5558;42.702;23.178;2023-05-07T02:14:56;11.70;;;10.53;;
11010;SDS011;5558;42.702;23.178;2023-05-07T02:17:23;11.90;;;10.80;;
11010;SDS011;5558;42.702;23.178;2023-05-07T02:19:50;11.77;;;10.57;;
11010;SDS011;5558;42.702;23.178;2023-05-07T02:22:17;11.40;;;10.30;;
11010;SDS011;5558;42.702;23.178;2023-05-07T02:24:44;10.90;;;9.80;;
11010;SDS011;5558;42.702;23.178;2023-05-07T02:27:10;10.40;;;9.37;;
11010;SDS011;5558;42.702;23.178;2023-05-07T02:29:37;10.37;;;9.30;;
11010;SDS011;5558;42.702;23.178;2023-05-07T02:32:05;23.73;;;21.20;;
11010;SDS011;5558;42.702;23.178;2023-05-07T02:34:32;13.13;;;11.73;;
11010;SDS011;5558;42.702;23.178;2023-05-07T02:36:58;12.47;;;11.17;;
11010;SDS011;5558;42.702;23.178;2023-05-07T02:39:25;10.53;;;9.50;;
11010;SDS011;5558;42.702;23.178;2023-05-07T02:41:52;10.33;;;9.43;;
11010;SDS011;5558;42.702;23.178;2023-05-07T02:44:18;11.17;;;9.90;;
11010;SDS011;5558;42.702;23.178;2023-05-07T02:46:45;11.63;;;9.13;;
11010;SDS011;5558;42.702;23.178;2023-05-07T02:49:13;11.27;;;10.27;;
11010;SDS011;5558;42.702;23.178;2023-05-07T02:51:40;11.40;;;9.97;;
11010;SDS011;5558;42.702;23.178;2023-05-07T02:54:06;12.37;;;10.67;;
11010;SDS011;5558;42.702;23.178;2023-05-07T02:56:33;11.10;;;9.90;;
11010;SDS011;5558;42.702;23.178;2023-05-07T02:59:00;11.90;;;10.80;;
11010;SDS011;5558;42.702;23.178;2023-05-07T03:01:26;12.43;;;11.23;;
11010;SDS011;5558;42.702;23.178;2023-05-07T03:03:54;12.37;;;11.17;;
11010;SDS011;5558;42.702;23.178;2023-05-07T03:06:22;14.23;;;12.80;;
11010;SDS011;5558;42.702;23.178;2023-05-07T03:08:49;11.70;;;10.50;;
11010;SDS011;5558;42.702;23.178;2023-05-07T03:11:16;11.37;;;10.27;;
11010;SDS011;5558;42.702;23.178;2023-05-07T03:13:42;12.57;;;11.37;;
11010;SDS011;5558;42.702;23.178;2023-05-07T03:16:09;14.50;;;12.50;;
11010;SDS011;5558;42.702;23.178;2023-05-07T03:18:36;12.63;;;11.33;;
11010;SDS011;5558;42.702;23.178;2023-05-07T03:21:02;13.70;;;11.40;;
11010;SDS011;5558;42.702;23.178;2023-05-07T03:23:30;12.80;;;11.50;;
11010;SDS011;5558;42.702;23.178;2023-05-07T03:25:57;13.10;;;11.60;;
11010;SDS011;5558;42.702;23.178;2023-05-07T03:28:24;11.83;;;10.63;;
11010;SDS011;5558;42.702;23.178;2023-05-07T03:30:50;11.87;;;10.13;;
11010;SDS011;5558;42.702;23.178;2023-05-07T03:33:17;10.70;;;9.63;;
11010;SDS011;5558;42.702;23.178;2023-05-07T03:35:44;9.17;;;8.23;;
11010;SDS011;5558;42.702;23.178;2023-05-07T03:38:11;9.60;;;8.20;;
11010;SDS011;5558;42.702;23.178;2023-05-07T03:40:39;9.70;;;8.00;;
11010;SDS011;5558;42.702;23.178;2023-05-07T03:43:05;8.67;;;7.27;;
11010;SDS011;5558;42.702;23.178;2023-05-07T03:45:32;8.30;;;6.23;;
11010;SDS011;5558;42.702;23.178;2023-05-07T03:47:59;10.93;;;8.27;;
11010;SDS011;5558;42.702;23.178;2023-05-07T03:50:25;11.70;;;9.07;;
11010;SDS011;5558;42.702;23.178;2023-05-07T03:52:52;9.03;;;8.13;;
11010;SDS011;5558;42.702;23.178;2023-05-07T03:55:19;8.60;;;7.40;;
11010;SDS011;5558;42.702;23.178;2023-05-07T03:57:47;9.10;;;6.93;;
11010;SDS011;5558;42.702;23.178;2023-05-07T04:00:14;7.73;;;6.40;;
11010;SDS011;5558;42.702;23.178;2023-05-07T04:02:41;8.50;;;6.30;;
11010;SDS011;5558;42.702;23.178;2023-05-07T04:05:07;6.13;;;5.50;;
11010;SDS011;5558;42.702;23.178;2023-05-07T04:07:34;6.13;;;5.40;;
11010;SDS011;5558;42.702;23.178;2023-05-07T04:10:01;6.03;;;5.43;;
11010;SDS011;5558;42.702;23.178;2023-05-07T04:12:28;6.97;;;5.40;;
11010;SDS011;5558;42.702;23.178;2023-05-07T04:14:56;6.77;;;5.57;;
11010;SDS011;5558;42.702;23.178;2023-05-07T04:17:23;6.00;;;4.80;;
11010;SDS011;5558;42.702;23.178;2023-05-07T04:19:49;5.23;;;4.73;;
11010;SDS011;5558;42.702;23.178;2023-05-07T04:22:16;5.20;;;4.70;;
11010;SDS011;5558;42.702;23.178;2023-05-07T04:24:43;5.80;;;5.20;;
11010;SDS011;5558;42.702;23.178;2023-05-07T04:27:09;5.47;;;4.80;;
11010;SDS011;5558;42.702;23.178;2023-05-07T04:29:37;6.33;;;5.20;;
11010;SDS011;5558;42.702;23.178;2023-05-07T04:32:08;7.70;;;5.90;;
11010;SDS011;5558;42.702;23.178;2023-05-07T04:34:35;9.20;;;7.00;;
11010;SDS011;5558;42.702;23.178;2023-05-07T04:37:02;7.87;;;6.80;;
11010;SDS011;5558;42.702;23.178;2023-05-07T04:39:28;6.27;;;5.67;;
11010;SDS011;5558;42.702;23.178;2023-05-07T04:41:55;5.70;;;5.00;;
11010;SDS011;5558;42.702;23.178;2023-05-07T04:44:21;5.53;;;4.83;;
11010;SDS011;5558;42.702;23.178;2023-05-07T04:46:48;6.00;;;4.73;;
11010;SDS011;5558;42.702;23.178;2023-05-07T04:49:16;5.90;;;4.93;;
11010;SDS011;5558;42.702;23.178;2023-05-07T04:51:43;5.30;;;4.90;;
11010;SDS011;5558;42.702;23.178;2023-05-07T04:54:10;6.73;;;5.03;;
11010;SDS011;5558;42.702;23.178;2023-05-07T04:56:36;6.90;;;4.90;;
11010;SDS011;5558;42.702;23.178;2023-05-07T04:59:03;7.07;;;5.13;;
11010;SDS011;5558;42.702;23.178;2023-05-07T05:01:30;5.30;;;4.67;;
11010;SDS011;5558;42.702;23.178;2023-05-07T05:03:57;5.67;;;4.90;;
11010;SDS011;5558;42.702;23.178;2023-05-07T05:06:26;5.90;;;5.40;;
11010;SDS011;5558;42.702;23.178;2023-05-07T05:08:53;8.83;;;4.93;;
11010;SDS011;5558;42.702;23.178;2023-05-07T05:11:20;5.83;;;4.80;;
11010;SDS011;5558;42.702;23.178;2023-05-07T05:13:46;5.63;;;4.90;;
11010;SDS011;5558;42.702;23.178;2023-05-07T05:16:14;5.70;;;5.10;;
11010;SDS011;5558;42.702;23.178;2023-05-07T05:18:40;5.43;;;4.93;;
11010;SDS011;5558;42.702;23.178;2023-05-07T05:21:07;5.50;;;5.00;;
11010;SDS011;5558;42.702;23.178;2023-05-07T05:23:35;5.77;;;5.03;;
11010;SDS011;5558;42.702;23.178;2023-05-07T05:26:02;5.83;;;5.23;;
11010;SDS011;5558;42.702;23.178;2023-05-07T05:28:28;5.50;;;5.00;;
11010;SDS011;5558;42.702;23.178;2023-05-07T05:30:55;7.73;;;4.80;;
11010;SDS011;5558;42.702;23.178;2023-05-07T05:33:22;5.30;;;4.80;;
11010;SDS011;5558;42.702;23.178;2023-05-07T05:35:49;6.60;;;5.03;;
11010;SDS011;5558;42.702;23.178;2023-05-07T05:38:16;6.10;;;5.00;;
11010;SDS011;5558;42.702;23.178;2023-05-07T05:40:44;5.27;;;4.77;;
11010;SDS011;5558;42.702;23.178;2023-05-07T05:43:10;5.93;;;5.00;;
11010;SDS011;5558;42.702;23.178;2023-05-07T05:45:37;7.40;;;5.00;;
11010;SDS011;5558;42.702;23.178;2023-05-07T05:48:04;6.73;;;4.73;;
11010;SDS011;5558;42.702;23.178;2023-05-07T05:50:31;5.57;;;4.93;;
11010;SDS011;5558;42.702;23.178;2023-05-07T05:52:58;5.67;;;4.83;;
11010;SDS011;5558;42.702;23.178;2023-05-07T05:55:24;6.27;;;4.87;;
11010;SDS011;5558;42.702;23.178;2023-05-07T05:57:52;6.27;;;4.70;;
11010;SDS011;5558;42.702;23.178;2023-05-07T06:00:19;6.33;;;4.67;;
11010;SDS011;5558;42.702;23.178;2023-05-07T06:02:47;5.87;;;4.63;;
11010;SDS011;5558;42.702;23.178;2023-05-07T06:05:14;5.70;;;4.67;;
11010;SDS011;5558;42.702;23.178;2023-05-07T06:07:41;5.10;;;4.70;;
11010;SDS011;5558;42.702;23.178;2023-05-07T06:10:08;5.57;;;4.87;;
11010;SDS011;5558;42.702;23.178;2023-05-07T06:12:34;5.47;;;4.83;;
11010;SDS011;5558;42.702;23.178;2023-05-07T06:15:03;6.03;;;4.97;;
11010;SDS011;5558;42.702;23.178;2023-05-07T06:17:30;5.33;;;4.83;;
11010;SDS011;5558;42.702;23.178;2023-05-07T06:19:57;6.23;;;5.10;;
11010;SDS011;5558;42.702;23.178;2023-05-07T06:22:24;5.00;;;4.60;;
11010;SDS011;5558;42.702;23.178;2023-05-07T06:24:50;4.80;;;4.30;;
11010;SDS011;5558;42.702;23.178;2023-05-07T06:27:17;7.53;;;4.50;;
11010;SDS011;5558;42.702;23.178;2023-05-07T06:29:43;7.00;;;4.97;;
11010;SDS011;5558;42.702;23.178;2023-05-07T06:32:12;4.67;;;4.27;;
11010;SDS011;5558;42.702;23.178;2023-05-07T06:34:39;4.83;;;4.30;;
11010;SDS011;5558;42.702;23.178;2023-05-07T06:37:06;4.80;;;4.33;;
11010;SDS011;5558;42.702;23.178;2023-05-07T06:39:33;5.00;;;4.30;;
11010;SDS011;5558;42.702;23.178;2023-05-07T06:42:00;5.20;;;4.50;;
11010;SDS011;5558;42.702;23.178;2023-05-07T06:44:27;4.77;;;4.27;;
11010;SDS011;5558;42.702;23.178;2023-05-07T06:46:54;4.80;;;4.30;;
11010;SDS011;5558;42.702;23.178;2023-05-07T06:49:22;5.70;;;4.10;;
11010;SDS011;5558;42.702;23.178;2023-05-07T06:51:48;5.83;;;4.23;;
11010;SDS011;5558;42.702;23.178;2023-05-07T06:54:15;5.17;;;4.67;;
11010;SDS011;5558;42.702;23.178;2023-05-07T06:56:42;4.90;;;4.50;;
11010;SDS011;5558;42.702;23.178;2023-05-07T06:59:09;5.10;;;4.60;;
11010;SDS011;5558;42.702;23.178;2023-05-07T07:01:35;4.90;;;4.40;;
11010;SDS011;5558;42.702;23.178;2023-05-07T07:04:02;5.13;;;4.33;;
11010;SDS011;5558;42.702;23.178;2023-05-07T07:06:30;6.40;;;4.77;;
11010;SDS011;5558;42.702;23.178;2023-05-07T07:08:57;5.33;;;4.20;;
11010;SDS011;5558;42.702;23.178;2023-05-07T07:11:24;4.90;;;4.40;;
11010;SDS011;5558;42.702;23.178;2023-05-07T07:13:51;5.23;;;4.33;;
11010;SDS011;5558;42.702;23.178;2023-05-07T07:16:19;5.80;;;5.07;;
11010;SDS011;5558;42.702;23.178;2023-05-07T07:18:46;6.13;;;4.40;;
11010;SDS011;5558;42.702;23.178;2023-05-07T07:21:12;5.83;;;4.50;;
11010;SDS011;5558;42.702;23.178;2023-05-07T07:23:41;5.50;;;5.00;;
11010;SDS011;5558;42.702;23.178;2023-05-07T07:26:07;7.63;;;4.67;;
11010;SDS011;5558;42.702;23.178;2023-05-07T07:28:34;7.07;;;4.70;;
11010;SDS011;5558;42.702;23.178;2023-05-07T07:31:01;6.30;;;4.63;;
11010;SDS011;5558;42.702;23.178;2023-05-07T07:33:27;7.77;;;4.90;;
11010;SDS011;5558;42.702;23.178;2023-05-07T07:35:55;5.33;;;4.37;;
11010;SDS011;5558;42.702;23.178;2023-05-07T07:38:21;5.30;;;4.80;;
11010;SDS011;5558;42.702;23.178;2023-05-07T07:40:50;5.10;;;4.60;;
11010;SDS011;5558;42.702;23.178;2023-05-07T07:43:16;7.17;;;4.60;;
11010;SDS011;5558;42.702;23.178;2023-05-07T07:45:43;6.73;;;4.53;;
11010;SDS011;5558;42.702;23.178;2023-05-07T07:48:11;6.07;;;4.37;;
11010;SDS011;5558;42.702;23.178;2023-05-07T07:50:38;6.30;;;4.60;;
11010;SDS011;5558;42.702;23.178;2023-05-07T07:53:04;5.27;;;4.77;;
11010;SDS011;5558;42.702;23.178;2023-05-07T07:55:31;6.40;;;4.47;;
11010;SDS011;5558;42.702;23.178;2023-05-07T07:57:59;5.77;;;4.40;;
11010;SDS011;5558;42.702;23.178;2023-05-07T08:00:26;5.37;;;4.40;;
11010;SDS011;5558;42.702;23.178;2023-05-07T08:02:52;5.30;;;4.43;;
11010;SDS011;5558;42.702;23.178;2023-05-07T08:05:19;9.30;;;4.73;;
11010;SDS011;5558;42.702;23.178;2023-05-07T08:07:46;6.13;;;4.60;;
11010;SDS011;5558;42.702;23.178;2023-05-07T08:10:16;8.17;;;4.50;;
11010;SDS011;5558;42.702;23.178;2023-05-07T08:12:46;4.73;;;3.87;;
11010;SDS011;5558;42.702;23.178;2023-05-07T08:15:14;7.73;;;3.90;;
11010;SDS011;5558;42.702;23.178;2023-05-07T08:17:41;5.03;;;3.47;;
11010;SDS011;5558;42.702;23.178;2023-05-07T08:20:09;3.87;;;3.33;;
11010;SDS011;5558;42.702;23.178;2023-05-07T08:22:36;5.17;;;3.67;;
11010;SDS011;5558;42.702;23.178;2023-05-07T08:25:03;5.03;;;4.00;;
11010;SDS011;5558;42.702;23.178;2023-05-07T08:27:30;4.10;;;3.70;;
11010;SDS011;5558;42.702;23.178;2023-05-07T08:29:56;4.30;;;3.90;;
11010;SDS011;5558;42.702;23.178;2023-05-07T08:32:25;5.00;;;3.80;;
11010;SDS011;5558;42.702;23.178;2023-05-07T08:34:52;5.17;;;3.70;;
11010;SDS011;5558;42.702;23.178;2023-05-07T08:37:20;4.93;;;3.80;;
11010;SDS011;5558;42.702;23.178;2023-05-07T08:39:46;4.23;;;3.90;;
11010;SDS011;5558;42.702;23.178;2023-05-07T08:42:13;6.03;;;3.60;;
11010;SDS011;5558;42.702;23.178;2023-05-07T08:44:44;5.57;;;3.63;;
11010;SDS011;5558;42.702;23.178;2023-05-07T08:47:12;4.10;;;3.60;;
11010;SDS011;5558;42.702;23.178;2023-05-07T08:49:40;5.27;;;3.73;;
11010;SDS011;5558;42.702;23.178;2023-05-07T08:52:07;4.77;;;3.53;;
11010;SDS011;5558;42.702;23.178;2023-05-07T08:54:34;3.83;;;3.43;;
11010;SDS011;5558;42.702;23.178;2023-05-07T08:57:03;4.73;;;3.60;;
11010;SDS011;5558;42.702;23.178;2023-05-07T08:59:30;4.50;;;3.60;;
11010;SDS011;5558;42.702;23.178;2023-05-07T09:01:57;4.90;;;3.60;;
11010;SDS011;5558;42.702;23.178;2023-05-07T09:04:24;5.20;;;3.80;;
11010;SDS011;5558;42.702;23.178;2023-05-07T09:06:52;5.67;;;3.70;;
11010;SDS011;5558;42.702;23.178;2023-05-07T09:09:18;4.00;;;3.70;;
11010;SDS011;5558;42.702;23.178;2023-05-07T09:11:47;6.40;;;3.77;;
11010;SDS011;5558;42.702;23.178;2023-05-07T09:14:14;3.63;;;3.30;;
11010;SDS011;5558;42.702;23.178;2023-05-07T09:16:41;4.57;;;3.40;;
11010;SDS011;5558;42.702;23.178;2023-05-07T09:19:07;3.47;;;3.20;;
11010;SDS011;5558;42.702;23.178;2023-05-07T09:21:34;4.80;;;3.40;;
11010;SDS011;5558;42.702;23.178;2023-05-07T09:24:03;4.13;;;3.00;;
11010;SDS011;5558;42.702;23.178;2023-05-07T09:26:30;4.43;;;3.10;;
11010;SDS011;5558;42.702;23.178;2023-05-07T09:28:58;5.43;;;3.20;;
11010;SDS011;5558;42.702;23.178;2023-05-07T09:31:24;4.60;;;2.90;;
11010;SDS011;5558;42.702;23.178;2023-05-07T09:33:52;3.37;;;3.07;;
11010;SDS011;5558;42.702;23.178;2023-05-07T09:36:20;3.70;;;3.20;;
11010;SDS011;5558;42.702;23.178;2023-05-07T09:38:47;3.00;;;2.70;;
11010;SDS011;5558;42.702;23.178;2023-05-07T09:41:16;7.10;;;3.10;;
11010;SDS011;5558;42.702;23.178;2023-05-07T09:43:42;4.30;;;3.40;;
11010;SDS011;5558;42.702;23.178;2023-05-07T09:46:11;5.00;;;2.67;;
11010;SDS011;5558;42.702;23.178;2023-05-07T09:48:39;3.00;;;2.70;;
11010;SDS011;5558;42.702;23.178;2023-05-07T09:51:15;4.37;;;2.80;;
11010;SDS011;5558;42.702;23.178;2023-05-07T09:53:48;4.00;;;2.90;;
11010;SDS011;5558;42.702;23.178;2023-05-07T09:56:19;3.40;;;2.80;;
11010;SDS011;5558;42.702;23.178;2023-05-07T09:58:47;3.90;;;2.90;;
11010;SDS011;5558;42.702;23.178;2023-05-07T10:01:17;2.80;;;2.60;;
11010;SDS011;5558;42.702;23.178;2023-05-07T10:03:44;2.57;;;2.30;;
11010;SDS011;5558;42.702;23.178;2023-05-07T10:06:13;2.80;;;2.60;;
11010;SDS011;5558;42.702;23.178;2023-05-07T10:08:40;3.50;;;2.50;;
11010;SDS011;5558;42.702;23.178;2023-05-07T10:11:09;2.90;;;2.60;;
11010;SDS011;5558;42.702;23.178;2023-05-07T10:13:37;4.27;;;2.77;;
11010;SDS011;5558;42.702;23.178;2023-05-07T10:16:04;2.50;;;2.30;;
11010;SDS011;5558;42.702;23.178;2023-05-07T10:18:31;2.67;;;2.40;;
11010;SDS011;5558;42.702;23.178;2023-05-07T10:21:08;5.13;;;2.33;;
11010;SDS011;5558;42.702;23.178;2023-05-07T10:23:42;2.33;;;2.10;;
11010;SDS011;5558;42.702;23.178;2023-05-07T10:26:11;2.73;;;2.30;;
11010;SDS011;5558;42.702;23.178;2023-05-07T10:28:53;2.80;;;2.40;;
11010;SDS011;5558;42.702;23.178;2023-05-07T10:31:28;2.50;;;2.30;;
11010;SDS011;5558;42.702;23.178;2023-05-07T10:34:10;2.87;;;2.30;;
11010;SDS011;5558;42.702;23.178;2023-05-07T10:36:40;2.63;;;2.33;;
11010;SDS011;5558;42.702;23.178;2023-05-07T10:39:07;3.10;;;2.23;;
11010;SDS011;5558;42.702;23.178;2023-05-07T10:41:34;2.93;;;2.40;;
11010;SDS011;5558;42.702;23.178;2023-05-07T10:44:03;2.37;;;2.17;;
11010;SDS011;5558;42.702;23.178;2023-05-07T10:46:30;3.03;;;2.47;;
11010;SDS011;5558;42.702;23.178;2023-05-07T10:49:06;2.60;;;2.40;;
11010;SDS011;5558;42.702;23.178;2023-05-07T10:51:34;2.90;;;2.20;;
11010;SDS011;5558;42.702;23.178;2023-05-07T10:54:22;2.80;;;2.60;;
11010;SDS011;5558;42.702;23.178;2023-05-07T10:56:52;2.77;;;2.33;;
11010;SDS011;5558;42.702;23.178;2023-05-07T10:59:35;2.63;;;2.20;;
11010;SDS011;5558;42.702;23.178;2023-05-07T11:02:09;4.30;;;2.27;;
11010;SDS011;5558;42.702;23.178;2023-05-07T11:04:39;5.70;;;2.33;;
11010;SDS011;5558;42.702;23.178;2023-05-07T11:09:58;2.50;;;2.30;;
11010;SDS011;5558;42.702;23.178;2023-05-07T11:15:41;2.53;;;2.33;;
11010;SDS011;5558;42.702;23.178;2023-05-07T11:18:10;2.73;;;2.40;;
11010;SDS011;5558;42.702;23.178;2023-05-07T11:26:21;2.40;;;2.20;;
11010;SDS011;5558;42.702;23.178;2023-05-07T11:28:48;2.93;;;2.40;;
11010;SDS011;5558;42.702;23.178;2023-05-07T11:31:20;2.77;;;2.50;;
11010;SDS011;5558;42.702;23.178;2023-05-07T11:33:48;3.70;;;2.30;;
11010;SDS011;5558;42.702;23.178;2023-05-07T11:36:15;2.53;;;2.17;;
11010;SDS011;5558;42.702;23.178;2023-05-07T11:38:42;2.90;;;2.20;;
11010;SDS011;5558;42.702;23.178;2023-05-07T11:41:09;3.07;;;2.20;;
11010;SDS011;5558;42.702;23.178;2023-05-07T11:43:36;2.77;;;2.00;;
11010;SDS011;5558;42.702;23.178;2023-05-07T11:46:05;5.50;;;2.33;;
11010;SDS011;5558;42.702;23.178;2023-05-07T11:48:35;4.53;;;2.13;;
11010;SDS011;5558;42.702;23.178;2023-05-07T11:51:03;4.07;;;2.20;;
11010;SDS011;5558;42.702;23.178;2023-05-07T11:53:38;4.17;;;2.30;;
11010;SDS011;5558;42.702;23.178;2023-05-07T11:56:06;2.20;;;2.10;;
11010;SDS011;5558;42.702;23.178;2023-05-07T11:58:33;2.63;;;2.23;;
11010;SDS011;5558;42.702;23.178;2023-05-07T12:01:00;3.03;;;2.30;;
11010;SDS011;5558;42.702;23.178;2023-05-07T12:03:28;3.37;;;2.20;;
11010;SDS011;5558;42.702;23.178;2023-05-07T12:05:56;3.20;;;2.13;;
11010;SDS011;5558;42.702;23.178;2023-05-07T12:08:22;3.30;;;2.00;;
11010;SDS011;5558;42.702;23.178;2023-05-07T12:10:50;6.03;;;2.27;;
11010;SDS011;5558;42.702;23.178;2023-05-07T12:13:17;3.53;;;2.30;;
11010;SDS011;5558;42.702;23.178;2023-05-07T12:15:45;3.23;;;2.37;;
11010;SDS011;5558;42.702;23.178;2023-05-07T12:18:12;3.13;;;2.50;;
11010;SDS011;5558;42.702;23.178;2023-05-07T12:20:39;2.70;;;2.30;;
11010;SDS011;5558;42.702;23.178;2023-05-07T12:23:07;2.60;;;2.10;;
11010;SDS011;5558;42.702;23.178;2023-05-07T12:25:34;3.00;;;2.57;;
11010;SDS011;5558;42.702;23.178;2023-05-07T12:28:02;2.30;;;2.10;;
11010;SDS011;5558;42.702;23.178;2023-05-07T12:30:30;3.37;;;2.40;;
11010;SDS011;5558;42.702;23.178;2023-05-07T12:32:57;3.27;;;2.20;;
11010;SDS011;5558;42.702;23.178;2023-05-07T12:35:27;4.33;;;2.30;;
11010;SDS011;5558;42.702;23.178;2023-05-07T12:37:57;2.40;;;2.20;;
11010;SDS011;5558;42.702;23.178;2023-05-07T12:40:33;2.30;;;2.10;;
11010;SDS011;5558;42.702;23.178;2023-05-07T12:43:02;2.40;;;2.20;;
11010;SDS011;5558;42.702;23.178;2023-05-07T12:45:28;2.47;;;2.23;;
11010;SDS011;5558;42.702;23.178;2023-05-07T12:47:55;2.40;;;2.20;;
11010;SDS011;5558;42.702;23.178;2023-05-07T12:50:22;2.27;;;2.07;;
11010;SDS011;5558;42.702;23.178;2023-05-07T12:52:49;2.30;;;2.10;;
11010;SDS011;5558;42.702;23.178;2023-05-07T12:55:16;2.73;;;2.30;;
11010;SDS011;5558;42.702;23.178;2023-05-07T12:57:45;2.60;;;2.40;;
11010;SDS011;5558;42.702;23.178;2023-05-07T13:00:15;3.17;;;2.20;;
11010;SDS011;5558;42.702;23.178;2023-05-07T13:02:43;7.13;;;2.40;;
11010;SDS011;5558;42.702;23.178;2023-05-07T13:05:10;4.40;;;2.23;;
11010;SDS011;5558;42.702;23.178;2023-05-07T13:07:37;4.97;;;2.20;;
11010;SDS011;5558;42.702;23.178;2023-05-07T13:10:04;4.60;;;2.20;;
11010;SDS011;5558;42.702;23.178;2023-05-07T13:12:32;3.57;;;2.10;;
11010;SDS011;5558;42.702;23.178;2023-05-07T13:15:00;2.70;;;2.30;;
11010;SDS011;5558;42.702;23.178;2023-05-07T13:17:26;2.57;;;1.83;;
11010;SDS011;5558;42.702;23.178;2023-05-07T13:19:53;3.77;;;2.20;;
11010;SDS011;5558;42.702;23.178;2023-05-07T13:22:20;4.20;;;2.10;;
11010;SDS011;5558;42.702;23.178;2023-05-07T13:24:46;2.47;;;2.07;;
11010;SDS011;5558;42.702;23.178;2023-05-07T13:27:13;2.80;;;2.20;;
11010;SDS011;5558;42.702;23.178;2023-05-07T13:29:40;3.23;;;2.00;;
11010;SDS011;5558;42.702;23.178;2023-05-07T13:32:08;3.10;;;2.00;;
11010;SDS011;5558;42.702;23.178;2023-05-07T13:34:35;3.00;;;2.30;;
11010;SDS011;5558;42.702;23.178;2023-05-07T13:37:02;2.40;;;2.10;;
11010;SDS011;5558;42.702;23.178;2023-05-07T13:39:28;3.23;;;2.10;;
11010;SDS011;5558;42.702;23.178;2023-05-07T13:41:55;2.70;;;2.07;;
11010;SDS011;5558;42.702;23.178;2023-05-07T13:44:22;4.77;;;2.20;;
11010;SDS011;5558;42.702;23.178;2023-05-07T13:46:49;2.40;;;2.20;;
11010;SDS011;5558;42.702;23.178;2023-05-07T13:49:17;2.10;;;2.00;;
11010;SDS011;5558;42.702;23.178;2023-05-07T13:51:44;2.17;;;1.93;;
11010;SDS011;5558;42.702;23.178;2023-05-07T13:54:11;3.63;;;2.23;;
11010;SDS011;5558;42.702;23.178;2023-05-07T13:56:38;2.43;;;2.23;;
11010;SDS011;5558;42.702;23.178;2023-05-07T13:59:05;2.40;;;2.20;;
11010;SDS011;5558;42.702;23.178;2023-05-07T14:01:31;2.93;;;2.27;;
11010;SDS011;5558;42.702;23.178;2023-05-07T14:03:58;2.63;;;2.23;;
11010;SDS011;5558;42.702;23.178;2023-05-07T14:06:26;3.33;;;2.40;;
11010;SDS011;5558;42.702;23.178;2023-05-07T14:08:53;2.43;;;2.23;;
11010;SDS011;5558;42.702;23.178;2023-05-07T14:11:23;2.40;;;2.03;;
11010;SDS011;5558;42.702;23.178;2023-05-07T14:13:49;2.83;;;2.13;;
11010;SDS011;5558;42.702;23.178;2023-05-07T14:16:16;2.53;;;2.33;;
11010;SDS011;5558;42.702;23.178;2023-05-07T14:18:43;3.10;;;2.20;;
11010;SDS011;5558;42.702;23.178;2023-05-07T14:21:09;3.60;;;2.20;;
11010;SDS011;5558;42.702;23.178;2023-05-07T14:23:37;3.53;;;2.30;;
11010;SDS011;5558;42.702;23.178;2023-05-07T14:26:04;4.10;;;2.00;;
11010;SDS011;5558;42.702;23.178;2023-05-07T14:28:31;2.80;;;2.20;;
11010;SDS011;5558;42.702;23.178;2023-05-07T14:30:58;3.17;;;2.43;;
11010;SDS011;5558;42.702;23.178;2023-05-07T14:33:24;2.73;;;2.10;;
11010;SDS011;5558;42.702;23.178;2023-05-07T14:35:51;5.77;;;2.50;;
11010;SDS011;5558;42.702;23.178;2023-05-07T14:38:18;2.40;;;2.20;;
11010;SDS011;5558;42.702;23.178;2023-05-07T14:40:46;3.17;;;2.07;;
11010;SDS011;5558;42.702;23.178;2023-05-07T14:43:13;2.20;;;2.00;;
11010;SDS011;5558;42.702;23.178;2023-05-07T14:45:39;2.30;;;2.10;;
11010;SDS011;5558;42.702;23.178;2023-05-07T14:48:06;3.80;;;2.20;;
11010;SDS011;5558;42.702;23.178;2023-05-07T14:50:34;2.47;;;2.10;;
11010;SDS011;5558;42.702;23.178;2023-05-07T14:53:00;3.07;;;2.10;;
11010;SDS011;5558;42.702;23.178;2023-05-07T14:55:27;2.40;;;2.20;;
11010;SDS011;5558;42.702;23.178;2023-05-07T14:57:56;2.80;;;2.10;;
11010;SDS011;5558;42.702;23.178;2023-05-07T15:00:23;2.47;;;2.10;;